createdAt,value
2023-03-02T00:01:56.883Z,15.60
2023-03-02T00:04:33.532Z,15.40
2023-03-02T00:07:07.863Z,14.60
2023-03-02T00:09:40.984Z,15.00
2023-03-02T00:12:15.283Z,14.80
2023-03-02T00:14:48.756Z,15.30
2023-03-02T00:17:18.555Z,15.50
2023-03-02T00:19:53.235Z,14.90
2023-03-02T00:22:27.094Z,15.60
2023-03-02T00:24:57.467Z,15.50
2023-03-02T00:27:30.669Z,15.50
2023-03-02T00:30:00.946Z,15.40
2023-03-02T00:32:35.082Z,15.40
2023-03-02T00:37:39.601Z,15.30
2023-03-02T00:40:12.486Z,15.60
2023-03-02T00:42:43.122Z,15.00
2023-03-02T00:45:13.974Z,15.30
2023-03-02T00:47:48.386Z,14.70
2023-03-02T00:50:20.867Z,14.60
2023-03-02T00:52:53.394Z,14.80
2023-03-02T00:55:25.737Z,14.70
2023-03-02T00:57:56.043Z,15.30
2023-03-02T01:00:27.862Z,14.70
2023-03-02T01:02:58.805Z,15.20
2023-03-02T01:05:29.083Z,15.00
2023-03-02T01:08:01.345Z,15.20
2023-03-02T01:10:33.334Z,14.40
2023-03-02T01:13:08.663Z,14.90
2023-03-02T01:15:44.115Z,14.40
2023-03-02T01:18:17.612Z,14.80
2023-03-02T01:20:50.500Z,14.80
2023-03-02T01:23:25.529Z,15.10
2023-03-02T01:25:57.643Z,14.90
2023-03-02T01:31:03.923Z,14.90
2023-03-02T01:33:36.434Z,14.40
2023-03-02T01:36:11.864Z,15.00
2023-03-02T01:38:41.874Z,14.60
2023-03-02T01:41:17.482Z,14.40
2023-03-02T01:43:48.072Z,14.50
2023-03-02T01:46:24.338Z,14.20
2023-03-02T01:49:00.960Z,14.50
2023-03-02T01:51:38.615Z,13.80
2023-03-02T01:54:16.600Z,14.40
2023-03-02T01:56:48.311Z,13.50
2023-03-02T01:59:22.191Z,13.10
2023-03-02T02:01:55.824Z,13.70
2023-03-02T02:04:28.407Z,13.60
2023-03-02T02:07:05.592Z,13.50
2023-03-02T02:09:40.729Z,13.20
2023-03-02T02:12:19.659Z,13.50
2023-03-02T02:14:53.556Z,12.90
2023-03-02T02:17:24.451Z,12.80
2023-03-02T02:20:10.184Z,12.30
2023-03-02T02:22:52.740Z,12.80
2023-03-02T02:25:40.566Z,12.90
2023-03-02T02:28:18.943Z,12.40
2023-03-02T02:30:52.178Z,13.20
2023-03-02T02:33:25.569Z,12.60
2023-03-02T02:36:06.493Z,11.90
2023-03-02T02:38:37.532Z,12.30
2023-03-02T02:41:15.793Z,11.70
2023-03-02T02:43:46.182Z,11.80
2023-03-02T02:46:19.443Z,11.50
2023-03-02T02:48:50.794Z,11.50
2023-03-02T02:51:29.703Z,11.50
2023-03-02T02:54:02.567Z,11.60
2023-03-02T02:56:37.526Z,11.60
2023-03-02T02:59:15.312Z,11.40
2023-03-02T03:01:46.474Z,11.00
2023-03-02T03:04:22.108Z,10.90
2023-03-02T03:06:55.818Z,10.90
2023-03-02T03:09:27.549Z,10.70
2023-03-02T03:12:01.600Z,10.20
2023-03-02T03:14:38.673Z,10.30
2023-03-02T03:17:13.623Z,10.30
2023-03-02T03:19:46.545Z,10.50
2023-03-02T03:22:20.865Z,10.10
2023-03-02T03:24:53.649Z,10.00
2023-03-02T03:27:24.225Z,10.10
2023-03-02T03:29:54.806Z,9.80
2023-03-02T03:32:27.061Z,9.90
2023-03-02T03:34:57.208Z,9.70
2023-03-02T03:37:28.051Z,9.70
2023-03-02T03:40:05.589Z,9.50
2023-03-02T03:42:36.840Z,9.80
2023-03-02T03:45:12.386Z,9.40
2023-03-02T03:47:45.845Z,9.50
2023-03-02T03:50:16.318Z,9.20
2023-03-02T03:52:49.002Z,9.20
2023-03-02T03:55:22.276Z,9.60
2023-03-02T03:57:54.869Z,9.00
2023-03-02T04:00:27.831Z,9.20
2023-03-02T04:02:59.485Z,8.70
2023-03-02T04:05:32.612Z,8.40
2023-03-02T04:08:05.858Z,8.70
2023-03-02T04:10:36.626Z,8.60
2023-03-02T04:13:10.464Z,8.50
2023-03-02T04:15:46.813Z,8.00
2023-03-02T04:18:19.701Z,8.30
2023-03-02T04:20:52.337Z,8.40
2023-03-02T04:23:23.025Z,8.10
2023-03-02T04:25:53.299Z,8.20
2023-03-02T04:28:26.354Z,8.30
2023-03-02T04:30:56.945Z,8.10
2023-03-02T04:33:29.621Z,8.20
2023-03-02T04:36:00.611Z,7.80
2023-03-02T04:38:33.756Z,7.80
2023-03-02T04:41:06.961Z,8.10
2023-03-02T04:43:39.533Z,8.10
2023-03-02T04:46:21.257Z,7.80
2023-03-02T04:48:52.983Z,7.80
2023-03-02T04:51:29.247Z,8.20
2023-03-02T04:54:05.253Z,8.00
2023-03-02T04:56:37.582Z,8.00
2023-03-02T04:59:09.758Z,8.50
2023-03-02T05:01:40.999Z,8.40
2023-03-02T05:04:14.377Z,8.30
2023-03-02T05:06:44.672Z,8.70
2023-03-02T05:09:15.412Z,8.30
2023-03-02T05:11:46.464Z,7.90
2023-03-02T05:14:18.990Z,8.20
2023-03-02T05:16:50.179Z,7.90
2023-03-02T05:19:21.021Z,7.80
2023-03-02T05:21:53.918Z,8.00
2023-03-02T05:24:24.033Z,7.90
2023-03-02T05:26:54.463Z,8.20
2023-03-02T05:29:26.433Z,7.70
2023-03-02T05:31:57.360Z,8.20
2023-03-02T05:34:27.252Z,8.40
2023-03-02T05:36:58.185Z,7.90
2023-03-02T05:39:30.969Z,7.80
2023-03-02T05:42:04.382Z,7.90
2023-03-02T05:44:34.841Z,8.60
2023-03-02T05:47:06.240Z,8.10
2023-03-02T05:49:38.982Z,7.90
2023-03-02T05:52:11.564Z,8.90
2023-03-02T05:54:43.626Z,8.50
2023-03-02T05:57:13.913Z,8.40
2023-03-02T05:59:45.978Z,8.70
2023-03-02T06:02:16.744Z,8.70
2023-03-02T06:04:48.775Z,8.60
2023-03-02T06:07:19.520Z,8.70
2023-03-02T06:09:51.130Z,8.70
2023-03-02T06:12:28.008Z,8.90
2023-03-02T06:14:58.998Z,9.10
2023-03-02T06:17:29.955Z,8.70
2023-03-02T06:20:10.293Z,8.60
2023-03-02T06:22:42.021Z,9.20
2023-03-02T06:27:44.580Z,9.20
2023-03-02T06:30:18.334Z,9.20
2023-03-02T06:32:48.899Z,9.30
2023-03-02T06:35:23.396Z,9.00
2023-03-02T06:37:53.857Z,8.80
2023-03-02T06:40:24.042Z,9.20
2023-03-02T06:43:02.114Z,9.20
2023-03-02T06:45:34.472Z,8.90
2023-03-02T06:48:07.243Z,9.30
2023-03-02T06:50:38.444Z,9.20
2023-03-02T06:53:11.505Z,8.90
2023-03-02T06:55:41.712Z,9.30
2023-03-02T06:58:12.855Z,8.80
2023-03-02T07:00:43.765Z,9.70
2023-03-02T07:03:17.067Z,9.80
2023-03-02T07:05:48.493Z,8.90
2023-03-02T07:08:18.512Z,9.50
2023-03-02T07:10:48.742Z,9.20
2023-03-02T07:13:24.343Z,9.20
2023-03-02T07:15:57.744Z,9.70
2023-03-02T07:18:27.762Z,9.50
2023-03-02T07:20:58.802Z,9.80
2023-03-02T07:23:32.514Z,9.90
2023-03-02T07:26:08.163Z,10.50
2023-03-02T07:28:41.461Z,9.70
2023-03-02T07:31:12.844Z,10.30
2023-03-02T07:33:43.595Z,10.00
2023-03-02T07:36:16.126Z,10.40
2023-03-02T07:38:49.373Z,9.90
2023-03-02T07:41:20.370Z,9.80
2023-03-02T07:43:52.177Z,10.40
2023-03-02T07:46:24.830Z,10.30
2023-03-02T07:48:55.301Z,10.40
2023-03-02T07:51:25.878Z,11.70
2023-03-02T07:53:56.670Z,12.80
2023-03-02T07:56:26.986Z,12.40
2023-03-02T07:58:57.475Z,12.70
2023-03-02T08:01:30.880Z,14.40
2023-03-02T08:04:02.169Z,16.10
2023-03-02T08:06:33.008Z,18.00
2023-03-02T08:09:05.213Z,17.40
2023-03-02T08:11:37.614Z,17.40
2023-03-02T08:14:07.375Z,16.10
2023-03-02T08:16:37.383Z,15.80
2023-03-02T08:19:12.591Z,15.70
2023-03-02T08:21:42.250Z,15.20
2023-03-02T08:26:46.902Z,15.70
2023-03-02T08:29:19.848Z,14.70
2023-03-02T08:31:50.988Z,15.40
2023-03-02T08:34:21.420Z,14.50
2023-03-02T08:36:54.610Z,15.00
2023-03-02T08:39:29.963Z,14.80
2023-03-02T08:42:03.466Z,14.90
2023-03-02T08:44:33.685Z,15.10
2023-03-02T08:47:12.405Z,14.80
2023-03-02T08:49:48.248Z,14.10
2023-03-02T08:52:19.092Z,15.00
2023-03-02T08:54:49.143Z,14.70
2023-03-02T08:57:21.356Z,14.20
2023-03-02T09:02:25.885Z,14.00
2023-03-02T09:04:56.627Z,14.30
2023-03-02T09:07:30.118Z,13.70
2023-03-02T09:10:03.467Z,13.60
2023-03-02T09:12:34.885Z,13.80
2023-03-02T09:15:08.704Z,13.70
2023-03-02T09:17:38.903Z,13.00
2023-03-02T09:20:12.565Z,12.90
2023-03-02T09:22:48.068Z,12.80
2023-03-02T09:25:19.912Z,13.10
2023-03-02T09:27:50.198Z,13.10
2023-03-02T09:30:22.955Z,12.30
2023-03-02T09:32:54.821Z,12.40
2023-03-02T09:35:27.785Z,12.40
2023-03-02T09:37:58.252Z,12.40
2023-03-02T09:40:33.354Z,12.40
2023-03-02T09:43:25.529Z,11.70
2023-03-02T09:46:06.463Z,11.90
2023-03-02T09:48:49.014Z,11.70
2023-03-02T09:51:40.470Z,11.80
2023-03-02T09:54:16.789Z,12.00
2023-03-02T09:56:53.811Z,11.30
2023-03-02T09:59:29.150Z,11.50
2023-03-02T10:02:20.973Z,10.90
2023-03-02T10:04:54.685Z,10.60
2023-03-02T10:07:30.431Z,10.60
2023-03-02T10:10:09.930Z,10.20
2023-03-02T10:12:59.798Z,9.90
2023-03-02T10:15:38.163Z,10.70
2023-03-02T10:18:20.500Z,10.00
2023-03-02T10:20:56.516Z,10.00
2023-03-02T10:23:39.688Z,9.70
2023-03-02T10:26:32.513Z,9.40
2023-03-02T10:29:31.719Z,9.60
2023-03-02T10:32:13.521Z,9.50
2023-03-02T10:34:45.624Z,9.50
2023-03-02T10:37:20.969Z,9.40
2023-03-02T10:39:53.652Z,8.90
2023-03-02T10:42:31.121Z,8.90
2023-03-02T10:45:25.685Z,8.60
2023-03-02T10:48:04.388Z,8.70
2023-03-02T10:50:34.461Z,8.60
2023-03-02T10:53:08.214Z,8.40
2023-03-02T10:55:49.630Z,8.70
2023-03-02T10:58:35.741Z,8.40
2023-03-02T11:01:18.206Z,8.50
2023-03-02T11:04:01.165Z,8.50
2023-03-02T11:06:32.911Z,8.40
2023-03-02T11:09:09.444Z,8.00
2023-03-02T11:11:54.519Z,7.90
2023-03-02T11:14:26.847Z,7.50
2023-03-02T11:17:01.865Z,8.20
2023-03-02T11:19:43.192Z,8.00
2023-03-02T11:22:26.726Z,7.60
2023-03-02T11:24:59.873Z,7.70
2023-03-02T11:27:34.092Z,7.60
2023-03-02T11:30:14.087Z,7.60
2023-03-02T11:32:53.483Z,7.40
2023-03-02T11:38:19.966Z,7.10
2023-03-02T11:40:55.978Z,7.20
2023-03-02T11:43:26.864Z,7.00
2023-03-02T11:46:05.100Z,7.20
2023-03-02T11:48:44.002Z,6.90
2023-03-02T11:51:20.117Z,6.80
2023-03-02T11:54:02.387Z,6.80
2023-03-02T11:59:13.528Z,6.20
2023-03-02T12:01:48.750Z,6.60
2023-03-02T12:04:32.073Z,6.60
2023-03-02T12:07:17.037Z,6.30
2023-03-02T12:09:58.213Z,6.50
2023-03-02T12:12:44.119Z,6.50
2023-03-02T12:15:39.305Z,6.50
2023-03-02T12:18:55.833Z,6.10
2023-03-02T12:21:26.442Z,6.10
2023-03-02T12:24:03.817Z,5.90
2023-03-02T12:26:37.701Z,6.00
2023-03-02T12:29:25.558Z,6.10
2023-03-02T12:31:58.462Z,6.10
2023-03-02T12:34:36.485Z,5.90
2023-03-02T12:37:16.088Z,5.70
2023-03-02T12:40:19.206Z,5.80
2023-03-02T12:43:25.239Z,5.60
2023-03-02T12:46:28.170Z,5.80
2023-03-02T12:49:12.117Z,5.80
2023-03-02T12:51:57.065Z,5.40
2023-03-02T12:54:31.093Z,5.60
2023-03-02T12:57:18.300Z,5.60
2023-03-02T12:59:56.399Z,5.80
2023-03-02T13:02:31.680Z,5.50
2023-03-02T13:05:07.598Z,5.40
2023-03-02T13:07:42.940Z,5.50
2023-03-02T13:10:26.184Z,5.30
2023-03-02T13:12:56.269Z,5.70
2023-03-02T13:15:28.038Z,5.50
2023-03-02T13:18:01.565Z,5.00
2023-03-02T13:20:31.961Z,5.30
2023-03-02T13:23:05.978Z,5.20
2023-03-02T13:25:39.283Z,5.30
2023-03-02T13:28:28.382Z,5.40
2023-03-02T13:31:01.694Z,5.30
2023-03-02T13:33:34.130Z,5.40
2023-03-02T13:36:09.041Z,5.20
2023-03-02T13:38:39.935Z,5.40
2023-03-02T13:41:10.927Z,5.00
2023-03-02T13:43:43.916Z,4.90
2023-03-02T13:46:33.037Z,5.00
2023-03-02T13:49:10.837Z,5.10
2023-03-02T13:51:46.623Z,5.10
2023-03-02T13:54:24.988Z,5.10
2023-03-02T13:56:58.155Z,7.20
2023-03-02T13:59:28.818Z,7.40
2023-03-02T14:02:02.741Z,7.60
2023-03-02T14:04:35.754Z,7.90
2023-03-02T14:07:06.038Z,8.30
2023-03-02T14:09:37.603Z,6.00
2023-03-02T14:12:08.852Z,5.40
2023-03-02T14:14:41.434Z,6.30
2023-03-02T14:17:22.504Z,5.20
2023-03-02T14:19:56.054Z,5.50
2023-03-02T14:22:29.729Z,5.50
2023-03-02T14:24:59.884Z,5.30
2023-03-02T14:27:36.233Z,5.90
2023-03-02T14:30:17.280Z,5.10
2023-03-02T14:32:50.833Z,5.50
2023-03-02T14:35:26.384Z,5.20
2023-03-02T14:37:56.316Z,5.30
2023-03-02T14:40:28.896Z,5.30
2023-03-02T14:43:02.333Z,5.40
2023-03-02T14:45:32.191Z,5.10
2023-03-02T14:48:02.470Z,5.00
2023-03-02T14:50:42.158Z,5.30
2023-03-02T14:53:17.752Z,5.20
2023-03-02T14:55:48.632Z,5.20
2023-03-02T14:58:29.666Z,5.40
2023-03-02T15:01:00.101Z,5.20
2023-03-02T15:03:30.768Z,5.00
2023-03-02T15:06:02.230Z,5.20
2023-03-02T15:11:04.069Z,4.60
2023-03-02T15:13:34.707Z,4.80
2023-03-02T15:16:06.229Z,5.00
2023-03-02T15:18:40.696Z,4.70
2023-03-02T15:21:20.423Z,5.10
2023-03-02T15:23:52.524Z,5.00
2023-03-02T15:26:22.106Z,4.80
2023-03-02T15:28:52.487Z,4.80
2023-03-02T15:31:22.414Z,4.80
2023-03-02T15:33:54.340Z,4.90
2023-03-02T15:38:54.509Z,4.90
2023-03-02T15:41:25.354Z,4.90
2023-03-02T15:46:26.642Z,4.50
2023-03-02T15:48:58.694Z,5.10
2023-03-02T15:51:28.766Z,5.10
2023-03-02T15:53:59.452Z,5.00
2023-03-02T15:56:38.751Z,4.60
2023-03-02T15:59:12.536Z,4.50
2023-03-02T16:01:44.929Z,4.90
2023-03-02T16:04:21.466Z,4.50
2023-03-02T16:06:52.160Z,4.70
2023-03-02T16:09:21.862Z,4.90
2023-03-02T16:11:52.181Z,4.80
2023-03-02T16:14:21.846Z,4.30
2023-03-02T16:16:51.755Z,4.70
2023-03-02T16:19:23.647Z,4.80
2023-03-02T16:24:21.897Z,4.60
2023-03-02T16:26:54.331Z,5.00
2023-03-02T16:29:24.277Z,5.00
2023-03-02T16:31:59.971Z,4.90
2023-03-02T16:34:29.664Z,4.80
2023-03-02T16:36:58.977Z,4.60
2023-03-02T16:39:28.728Z,4.80
2023-03-02T16:41:58.344Z,4.90
2023-03-02T16:44:30.807Z,5.00
2023-03-02T16:47:01.039Z,4.80
2023-03-02T16:49:31.011Z,4.80
2023-03-02T16:52:00.980Z,5.00
2023-03-02T16:54:30.434Z,5.20
2023-03-02T16:57:02.176Z,5.00
2023-03-02T16:59:32.226Z,5.00
2023-03-02T17:02:01.724Z,4.90
2023-03-02T17:04:34.253Z,4.90
2023-03-02T17:07:05.210Z,4.80
2023-03-02T17:09:40.671Z,5.30
2023-03-02T17:12:10.302Z,4.70
2023-03-02T17:14:39.726Z,4.70
2023-03-02T17:17:09.406Z,4.90
2023-03-02T17:19:39.348Z,4.90
2023-03-02T17:22:08.854Z,4.60
2023-03-02T17:24:39.079Z,5.20
2023-03-02T17:27:23.821Z,5.10
2023-03-02T17:29:55.312Z,5.20
2023-03-02T17:32:26.075Z,4.90
2023-03-02T17:34:56.815Z,4.80
2023-03-02T17:37:27.707Z,4.90
2023-03-02T17:39:57.818Z,5.30
2023-03-02T17:42:27.770Z,5.00
2023-03-02T17:44:57.645Z,5.10
2023-03-02T17:47:27.220Z,5.20
2023-03-02T17:49:57.701Z,5.20
2023-03-02T17:52:28.920Z,5.10
2023-03-02T17:54:58.485Z,4.90
2023-03-02T17:57:27.981Z,4.90
2023-03-02T17:59:57.524Z,5.00
2023-03-02T18:02:26.986Z,5.40
2023-03-02T18:04:56.432Z,5.30
2023-03-02T18:07:28.950Z,5.20
2023-03-02T18:09:58.796Z,4.90
2023-03-02T18:12:28.457Z,4.70
2023-03-02T18:14:57.756Z,5.30
2023-03-02T18:17:27.992Z,4.90
2023-03-02T18:20:00.423Z,5.30
2023-03-02T18:22:31.150Z,5.30
2023-03-02T18:25:01.851Z,5.10
2023-03-02T18:27:33.873Z,5.30
2023-03-02T18:30:12.098Z,5.40
2023-03-02T18:32:41.562Z,5.10
2023-03-02T18:35:13.123Z,5.10
2023-03-02T18:37:44.955Z,5.00
2023-03-02T18:40:15.776Z,5.40
2023-03-02T18:42:45.441Z,5.20
2023-03-02T18:45:24.500Z,4.70
2023-03-02T18:47:54.521Z,5.30
2023-03-02T18:50:28.407Z,5.30
2023-03-02T18:52:57.898Z,5.00
2023-03-02T18:55:27.404Z,5.50
2023-03-02T18:57:57.536Z,5.40
2023-03-02T19:00:28.317Z,5.20
2023-03-02T19:02:59.948Z,5.40
2023-03-02T19:05:30.502Z,5.20
2023-03-02T19:08:03.294Z,5.60
2023-03-02T19:10:36.154Z,5.90
2023-03-02T19:13:10.857Z,5.70
2023-03-02T19:15:41.856Z,5.80
2023-03-02T19:18:17.121Z,5.70
2023-03-02T19:20:48.816Z,5.80
2023-03-02T19:23:18.628Z,5.60
2023-03-02T19:25:49.343Z,6.10
2023-03-02T19:28:20.996Z,6.30
2023-03-02T19:33:26.686Z,5.90
2023-03-02T19:36:01.311Z,6.00
2023-03-02T19:38:32.256Z,6.30
2023-03-02T19:41:03.305Z,6.60
2023-03-02T19:43:33.661Z,6.20
2023-03-02T19:46:07.251Z,6.20
2023-03-02T19:48:40.016Z,6.20
2023-03-02T19:51:11.493Z,6.70
2023-03-02T19:53:42.972Z,6.70
2023-03-02T19:56:15.103Z,6.60
2023-03-02T19:58:54.894Z,6.90
2023-03-02T20:01:30.960Z,7.40
2023-03-02T20:04:07.019Z,7.40
2023-03-02T20:06:37.618Z,7.70
2023-03-02T20:09:13.895Z,8.20
2023-03-02T20:11:46.667Z,8.80
2023-03-02T20:14:32.845Z,8.90
2023-03-02T20:17:04.340Z,9.20
2023-03-02T20:19:34.358Z,9.80
2023-03-02T20:22:06.426Z,10.20
2023-03-02T20:24:40.443Z,10.50
2023-03-02T20:27:15.837Z,10.80
2023-03-02T20:29:47.850Z,10.60
2023-03-02T20:32:20.207Z,11.10
2023-03-02T20:34:52.714Z,11.00
2023-03-02T20:37:28.207Z,11.30
2023-03-02T20:40:02.424Z,11.00
2023-03-02T20:42:40.120Z,11.30
2023-03-02T20:45:17.242Z,12.00
2023-03-02T20:47:49.025Z,11.90
2023-03-02T20:50:26.665Z,11.70
2023-03-02T20:53:00.666Z,12.20
2023-03-02T20:55:31.617Z,12.00
2023-03-02T20:58:05.060Z,12.20
2023-03-02T21:00:37.138Z,12.50
2023-03-02T21:03:13.982Z,12.90
2023-03-02T21:05:44.495Z,13.20
2023-03-02T21:08:14.822Z,12.30
2023-03-02T21:10:45.455Z,13.10
2023-03-02T21:13:20.594Z,12.70
2023-03-02T21:15:59.402Z,13.30
2023-03-02T21:18:38.181Z,13.90
2023-03-02T21:21:10.969Z,14.00
2023-03-02T21:23:43.457Z,14.20
2023-03-02T21:26:15.221Z,14.20
2023-03-02T21:28:47.581Z,14.00
2023-03-02T21:31:20.908Z,13.80
2023-03-02T21:33:59.497Z,13.90
2023-03-02T21:36:32.741Z,14.50
2023-03-02T21:39:04.247Z,14.60
2023-03-02T21:41:35.905Z,15.20
2023-03-02T21:44:09.459Z,15.50
2023-03-02T21:46:40.654Z,14.30
2023-03-02T21:49:12.475Z,14.90
2023-03-02T21:51:48.828Z,15.00
2023-03-02T21:54:21.946Z,15.60
2023-03-02T21:56:54.765Z,16.40
2023-03-02T21:59:27.285Z,16.20
2023-03-02T22:01:58.278Z,17.30
2023-03-02T22:04:34.645Z,17.30
2023-03-02T22:07:11.368Z,17.80
2023-03-02T22:09:41.776Z,18.00
2023-03-02T22:12:16.511Z,19.00
2023-03-02T22:14:47.581Z,17.90
2023-03-02T22:17:21.184Z,19.00
2023-03-02T22:19:53.216Z,18.50
2023-03-02T22:22:32.794Z,18.50
2023-03-02T22:25:15.553Z,19.60
2023-03-02T22:27:49.563Z,18.80
2023-03-02T22:30:26.141Z,19.70
2023-03-02T22:33:00.709Z,19.80
2023-03-02T22:35:33.975Z,19.60
2023-03-02T22:38:14.525Z,19.70
2023-03-02T22:40:47.105Z,19.70
2023-03-02T22:43:25.767Z,20.30
2023-03-02T22:45:59.477Z,20.10
2023-03-02T22:48:31.495Z,19.50
2023-03-02T22:51:14.828Z,20.10
2023-03-02T22:53:51.187Z,20.60
2023-03-02T22:56:31.034Z,20.20
2023-03-02T22:59:09.602Z,20.70
2023-03-02T23:01:42.087Z,20.10
2023-03-02T23:04:24.358Z,20.70
2023-03-02T23:06:56.884Z,20.90
2023-03-02T23:09:29.787Z,21.60
2023-03-02T23:12:05.019Z,20.90
2023-03-02T23:14:47.642Z,20.80
2023-03-02T23:17:22.790Z,21.10
2023-03-02T23:20:04.276Z,20.20
2023-03-02T23:22:38.487Z,20.30
2023-03-02T23:25:11.116Z,20.40
2023-03-02T23:27:41.041Z,21.50
2023-03-02T23:30:17.406Z,20.50
2023-03-02T23:32:56.990Z,20.40
2023-03-02T23:35:29.336Z,20.50
2023-03-02T23:38:02.864Z,19.80
2023-03-02T23:40:34.727Z,20.60
2023-03-02T23:43:04.841Z,20.00
2023-03-02T23:45:34.831Z,20.70
2023-03-02T23:48:06.374Z,20.10
2023-03-02T23:50:36.562Z,19.50
2023-03-02T23:53:09.490Z,20.20
2023-03-02T23:55:44.591Z,20.60
2023-03-02T23:58:15.159Z,19.80
